Vauxhall, Canada
Current Conditions -  °F | °C
As of 4:00 AM on Sunday 21 Dec 2014 (Local Time) from CYQL Reporting Station
Overcast Overcast  
Wind Chill: 26°   Ceiling: 12000
Heat Index: 36°   Visibility: 9mi
Dew Point: 30°   Wind: 16mph
Humidity: 81%   Direction: 200°SSW
Pressure: 29.24"   Gusts: NA
Location:  50.07°N, 112.1°W
Report Text: CYQL 211100Z AUTO 20014KT 9SM OVC120 02/M01 A2924 RMK SLP931
Loading
Personal Weather Stations






























Interactive Weather Map New forecast layout! Learn more

10-Day Weather Forecast

Advertisements
Track Severe Weather on mobile